createdAt,value
2018-07-30T00:02:12.539Z,99.90
2018-07-30T00:04:40.945Z,99.90
2018-07-30T00:07:09.450Z,99.90
2018-07-30T00:09:37.996Z,99.90
2018-07-30T00:12:06.726Z,99.90
2018-07-30T00:14:35.224Z,99.90
2018-07-30T00:17:03.674Z,99.90
2018-07-30T00:19:32.121Z,99.90
2018-07-30T00:22:00.519Z,99.90
2018-07-30T00:24:29.058Z,99.90
2018-07-30T00:26:57.548Z,99.90
2018-07-30T00:29:26.008Z,99.90
2018-07-30T00:31:54.493Z,99.90
2018-07-30T00:34:22.894Z,99.90
2018-07-30T00:36:51.333Z,99.90
2018-07-30T00:39:19.827Z,99.90
2018-07-30T00:41:48.242Z,99.90
2018-07-30T00:44:16.643Z,99.90
2018-07-30T00:46:44.986Z,99.90
2018-07-30T00:49:13.364Z,99.90
2018-07-30T00:51:41.792Z,99.90
2018-07-30T00:54:10.246Z,99.90
2018-07-30T00:56:38.969Z,99.90
2018-07-30T00:59:07.505Z,99.90
2018-07-30T01:01:35.894Z,99.90
2018-07-30T01:04:04.370Z,99.90
2018-07-30T01:06:32.842Z,99.90
2018-07-30T01:09:01.332Z,99.90
2018-07-30T01:11:29.717Z,99.90
2018-07-30T01:13:58.294Z,99.90
2018-07-30T01:16:26.705Z,99.90
2018-07-30T01:18:55.049Z,99.90
2018-07-30T01:21:23.505Z,99.90
2018-07-30T01:23:51.934Z,99.90
2018-07-30T01:26:25.713Z,99.90
2018-07-30T01:28:54.133Z,99.90
2018-07-30T01:31:22.642Z,99.90
2018-07-30T01:33:51.067Z,99.90
2018-07-30T01:36:19.460Z,99.90
2018-07-30T01:38:48.283Z,99.90
2018-07-30T01:41:16.805Z,99.90
2018-07-30T01:43:45.267Z,99.90
2018-07-30T01:46:13.613Z,99.90
2018-07-30T01:51:10.311Z,99.90
2018-07-30T01:53:38.636Z,99.90
2018-07-30T01:56:07.096Z,99.90
2018-07-30T01:58:35.487Z,99.90
2018-07-30T02:01:03.996Z,99.90
2018-07-30T02:03:32.425Z,99.90
2018-07-30T02:06:00.810Z,99.90
2018-07-30T02:08:29.219Z,99.90
2018-07-30T02:10:57.696Z,99.90
2018-07-30T02:13:26.208Z,99.90
2018-07-30T02:15:54.697Z,99.90
2018-07-30T02:18:23.315Z,99.90
2018-07-30T02:20:51.712Z,99.90
2018-07-30T02:23:20.172Z,99.90
2018-07-30T02:28:16.633Z,99.90
2018-07-30T02:30:45.077Z,99.90
2018-07-30T02:33:13.443Z,99.90
2018-07-30T02:35:41.881Z,99.90
2018-07-30T02:38:10.304Z,99.90
2018-07-30T02:40:38.810Z,99.90
2018-07-30T02:43:07.333Z,99.90
2018-07-30T02:45:35.826Z,99.90
2018-07-30T02:48:04.247Z,99.90
2018-07-30T02:50:32.567Z,99.90
2018-07-30T02:53:01.018Z,99.90
2018-07-30T02:55:29.445Z,99.90
2018-07-30T02:57:57.920Z,99.90
2018-07-30T03:00:26.549Z,99.90
2018-07-30T03:02:54.986Z,99.90
2018-07-30T03:05:23.400Z,99.90
2018-07-30T03:07:51.756Z,99.90
2018-07-30T03:10:20.237Z,99.90
2018-07-30T03:12:48.673Z,99.90
2018-07-30T03:15:17.101Z,99.90
2018-07-30T03:17:45.560Z,99.90
2018-07-30T03:20:13.951Z,99.90
2018-07-30T03:22:42.338Z,99.90
2018-07-30T03:25:10.792Z,99.90
2018-07-30T03:27:39.288Z,99.90
2018-07-30T03:30:09.366Z,99.90
2018-07-30T03:32:37.961Z,99.90
2018-07-30T03:35:07.135Z,99.90
2018-07-30T03:37:35.773Z,99.90
2018-07-30T03:40:04.875Z,99.90
2018-07-30T03:42:33.430Z,99.90
2018-07-30T03:45:01.848Z,99.90
2018-07-30T03:47:30.279Z,99.90
2018-07-30T03:49:58.725Z,99.90
2018-07-30T03:52:27.078Z,99.90
2018-07-30T03:54:55.659Z,99.90
2018-07-30T03:57:24.123Z,99.90
2018-07-30T03:59:52.566Z,99.90
2018-07-30T04:02:21.072Z,99.90
2018-07-30T04:04:49.483Z,99.90
2018-07-30T04:07:17.891Z,99.90
2018-07-30T04:09:46.288Z,99.90
2018-07-30T04:12:14.765Z,99.90
2018-07-30T04:14:43.318Z,99.90
2018-07-30T04:17:11.794Z,99.90
2018-07-30T04:19:40.140Z,99.90
2018-07-30T04:22:08.589Z,99.90
2018-07-30T04:24:37.019Z,99.90
2018-07-30T04:27:06.155Z,99.90
2018-07-30T04:32:02.725Z,99.90
2018-07-30T04:34:31.183Z,99.90
2018-07-30T04:36:59.688Z,99.90
2018-07-30T04:39:28.079Z,99.90
2018-07-30T04:41:56.494Z,99.90
2018-07-30T04:44:24.849Z,99.90
2018-07-30T04:46:53.296Z,99.90
2018-07-30T04:49:21.766Z,99.90
2018-07-30T04:51:50.141Z,99.90
2018-07-30T04:54:18.591Z,99.90
2018-07-30T04:56:46.989Z,99.90
2018-07-30T04:59:15.412Z,99.90
2018-07-30T05:01:43.862Z,99.90
2018-07-30T05:04:12.247Z,99.90
2018-07-30T05:06:40.637Z,99.90
2018-07-30T05:09:09.575Z,99.90
2018-07-30T05:14:06.009Z,99.90
2018-07-30T05:16:34.403Z,99.90
2018-07-30T05:19:02.894Z,99.90
2018-07-30T05:21:31.299Z,99.90
2018-07-30T05:23:59.656Z,99.90
2018-07-30T05:26:28.033Z,99.90
2018-07-30T05:28:56.428Z,99.90
2018-07-30T05:31:24.892Z,99.90
2018-07-30T05:33:53.294Z,99.90
2018-07-30T05:36:21.607Z,99.10
2018-07-30T05:41:18.324Z,97.10
2018-07-30T05:43:47.375Z,96.20
2018-07-30T05:46:15.783Z,95.50
2018-07-30T05:48:44.258Z,95.10
2018-07-30T05:51:12.683Z,94.70
2018-07-30T05:53:41.038Z,94.20
2018-07-30T05:56:09.706Z,93.30
2018-07-30T05:58:38.120Z,92.40
2018-07-30T06:01:06.855Z,91.00
2018-07-30T06:03:35.363Z,91.00
2018-07-30T06:06:03.874Z,89.30
2018-07-30T06:08:32.357Z,88.10
2018-07-30T06:11:00.780Z,87.60
2018-07-30T06:13:29.127Z,86.50
2018-07-30T06:15:57.536Z,85.30
2018-07-30T06:18:26.180Z,84.40
2018-07-30T06:20:54.973Z,83.80
2018-07-30T06:23:23.271Z,84.00
2018-07-30T06:25:51.718Z,83.20
2018-07-30T06:28:20.020Z,82.30
2018-07-30T06:30:48.521Z,81.60
2018-07-30T06:33:16.949Z,81.90
2018-07-30T06:35:45.370Z,82.00
2018-07-30T06:38:13.697Z,81.80
2018-07-30T06:40:42.099Z,82.20
2018-07-30T06:43:10.518Z,82.60
2018-07-30T06:45:38.897Z,82.70
2018-07-30T06:50:35.361Z,80.50
2018-07-30T06:53:03.765Z,81.50
2018-07-30T06:55:32.204Z,81.90
2018-07-30T06:58:00.671Z,82.30
2018-07-30T07:00:29.107Z,81.10
2018-07-30T07:02:57.502Z,82.70
2018-07-30T07:05:25.871Z,83.00
2018-07-30T07:07:54.252Z,82.80
2018-07-30T07:10:22.635Z,84.00
2018-07-30T07:12:51.060Z,84.00
2018-07-30T07:15:19.432Z,82.80
2018-07-30T07:17:47.835Z,82.80
2018-07-30T07:20:16.189Z,81.10
2018-07-30T07:22:44.629Z,81.30
2018-07-30T07:25:13.256Z,80.20
2018-07-30T07:27:41.619Z,82.50
2018-07-30T07:30:10.011Z,81.60
2018-07-30T07:32:38.489Z,81.70
2018-07-30T07:35:07.105Z,81.10
2018-07-30T07:37:35.495Z,81.00
2018-07-30T07:40:04.606Z,79.20
2018-07-30T07:42:32.991Z,79.30
2018-07-30T07:45:01.535Z,78.80
2018-07-30T07:47:29.865Z,78.40
2018-07-30T07:49:58.277Z,77.80
2018-07-30T07:52:26.698Z,77.30
2018-07-30T07:54:55.286Z,78.70
2018-07-30T07:57:23.913Z,79.80
2018-07-30T07:59:52.438Z,77.40
2018-07-30T08:02:20.876Z,77.00
2018-07-30T08:04:49.289Z,76.90
2018-07-30T08:07:17.850Z,76.80
2018-07-30T08:09:46.266Z,75.70
2018-07-30T08:12:14.627Z,77.10
2018-07-30T08:14:42.996Z,76.40
2018-07-30T08:17:11.454Z,78.30
2018-07-30T08:19:39.872Z,76.30
2018-07-30T08:22:08.341Z,79.60
2018-07-30T08:24:36.743Z,77.40
2018-07-30T08:27:05.228Z,78.50
2018-07-30T08:29:33.631Z,75.90
2018-07-30T08:32:02.058Z,75.60
2018-07-30T08:34:30.459Z,75.60
2018-07-30T08:36:58.893Z,76.60
2018-07-30T08:39:27.271Z,72.90
2018-07-30T08:41:55.593Z,74.10
2018-07-30T08:44:23.908Z,76.50
2018-07-30T08:46:52.316Z,75.00
2018-07-30T08:49:20.720Z,73.90
2018-07-30T08:51:49.210Z,73.10
2018-07-30T08:54:17.581Z,72.10
2018-07-30T08:56:46.987Z,71.60
2018-07-30T08:59:15.469Z,71.10
2018-07-30T09:01:43.889Z,70.90
2018-07-30T09:04:12.302Z,72.30
2018-07-30T09:06:40.706Z,70.60
2018-07-30T09:09:10.330Z,69.20
2018-07-30T09:11:39.004Z,72.30
2018-07-30T09:14:07.794Z,68.20
2018-07-30T09:16:36.251Z,69.50
2018-07-30T09:19:05.254Z,69.80
2018-07-30T09:21:33.698Z,70.00
2018-07-30T09:24:02.073Z,70.00
2018-07-30T09:26:30.469Z,69.70
2018-07-30T09:28:58.877Z,69.70
2018-07-30T09:31:27.318Z,71.00
2018-07-30T09:33:55.794Z,65.50
2018-07-30T09:36:25.810Z,66.50
2018-07-30T09:38:54.909Z,64.60
2018-07-30T09:41:23.927Z,65.20
2018-07-30T09:43:52.995Z,65.40
2018-07-30T09:46:21.487Z,64.90
2018-07-30T09:48:49.829Z,66.30
2018-07-30T09:51:18.257Z,62.40
2018-07-30T09:53:46.608Z,63.70
2018-07-30T09:56:14.966Z,63.80
2018-07-30T09:58:43.298Z,62.60
2018-07-30T10:01:17.163Z,62.40
2018-07-30T10:03:45.539Z,65.20
2018-07-30T10:06:14.137Z,64.50
2018-07-30T10:08:42.552Z,64.10
2018-07-30T10:11:10.913Z,63.60
2018-07-30T10:13:39.322Z,64.40
2018-07-30T10:16:10.092Z,66.90
2018-07-30T10:18:38.795Z,65.70
2018-07-30T10:21:07.257Z,64.30
2018-07-30T10:23:35.742Z,64.20
2018-07-30T10:26:04.182Z,66.60
2018-07-30T10:28:32.662Z,65.30
2018-07-30T10:31:01.057Z,65.70
2018-07-30T10:33:29.419Z,67.60
2018-07-30T10:35:57.879Z,63.70
2018-07-30T10:38:26.306Z,65.80
2018-07-30T10:40:54.736Z,65.10
2018-07-30T10:43:23.148Z,66.10
2018-07-30T10:45:51.725Z,66.10
2018-07-30T10:48:20.153Z,67.50
2018-07-30T10:50:48.575Z,65.20
2018-07-30T10:53:16.984Z,68.20
2018-07-30T10:55:45.387Z,66.80
2018-07-30T10:58:13.871Z,68.50
2018-07-30T11:00:42.242Z,71.70
2018-07-30T11:03:10.730Z,68.40
2018-07-30T11:05:39.341Z,66.80
2018-07-30T11:08:07.769Z,64.10
2018-07-30T11:10:36.248Z,64.70
2018-07-30T11:13:04.683Z,63.80
2018-07-30T11:15:33.929Z,66.60
2018-07-30T11:18:03.206Z,63.60
2018-07-30T11:20:31.590Z,63.40
2018-07-30T11:23:00.006Z,63.00
2018-07-30T11:25:28.545Z,63.50
2018-07-30T11:27:57.037Z,62.30
2018-07-30T11:30:26.562Z,60.60
2018-07-30T11:32:54.945Z,60.00
2018-07-30T11:35:23.350Z,60.50
2018-07-30T11:37:51.769Z,61.00
2018-07-30T11:40:20.166Z,60.20
2018-07-30T11:42:48.698Z,59.10
2018-07-30T11:45:17.050Z,58.20
2018-07-30T11:47:45.437Z,59.40
2018-07-30T11:50:13.902Z,58.50
2018-07-30T11:52:42.344Z,59.80
2018-07-30T11:55:10.993Z,59.30
2018-07-30T11:57:39.464Z,60.80
2018-07-30T12:00:08.004Z,63.00
2018-07-30T12:02:36.512Z,64.70
2018-07-30T12:05:04.995Z,64.70
2018-07-30T12:07:33.424Z,61.30
2018-07-30T12:10:01.803Z,64.00
2018-07-30T12:12:30.215Z,63.40
2018-07-30T12:14:58.740Z,63.90
2018-07-30T12:17:27.139Z,66.00
2018-07-30T12:19:55.554Z,63.20
2018-07-30T12:22:23.911Z,63.00
2018-07-30T12:24:52.301Z,63.40
2018-07-30T12:27:20.754Z,64.50
2018-07-30T12:29:49.152Z,66.70
2018-07-30T12:32:17.617Z,64.80
2018-07-30T12:34:46.673Z,66.10
2018-07-30T12:37:15.143Z,66.40
2018-07-30T12:39:43.555Z,67.60
2018-07-30T12:42:11.983Z,65.50
2018-07-30T12:44:40.353Z,65.80
2018-07-30T12:47:08.760Z,66.30
2018-07-30T12:49:37.268Z,67.00
2018-07-30T12:52:05.800Z,67.80
2018-07-30T12:54:34.178Z,67.60
2018-07-30T12:57:02.511Z,66.20
2018-07-30T12:59:30.883Z,66.30
2018-07-30T13:01:59.277Z,67.90
2018-07-30T13:04:27.730Z,66.20
2018-07-30T13:06:56.137Z,66.90
2018-07-30T13:09:24.567Z,68.40
2018-07-30T13:11:52.918Z,68.40
2018-07-30T13:14:21.305Z,67.50
2018-07-30T13:16:49.702Z,65.80
2018-07-30T13:19:18.174Z,66.70
2018-07-30T13:21:46.635Z,65.50
2018-07-30T13:24:15.077Z,64.80
2018-07-30T13:26:43.536Z,65.20
2018-07-30T13:29:12.647Z,66.20
2018-07-30T13:31:41.057Z,65.60
2018-07-30T13:34:09.463Z,64.60
2018-07-30T13:36:37.927Z,66.20
2018-07-30T13:39:08.427Z,65.80
2018-07-30T13:41:37.206Z,65.90
2018-07-30T13:44:05.637Z,63.80
2018-07-30T13:46:34.076Z,63.70
2018-07-30T13:49:02.473Z,62.70
2018-07-30T13:51:30.863Z,63.10
2018-07-30T13:53:59.371Z,62.70
2018-07-30T13:56:27.784Z,63.10
2018-07-30T13:58:56.253Z,63.70
2018-07-30T14:01:24.682Z,64.90
2018-07-30T14:03:53.290Z,63.60
2018-07-30T14:06:21.755Z,63.40
2018-07-30T14:08:50.201Z,63.60
2018-07-30T14:11:18.685Z,63.80
2018-07-30T14:13:47.124Z,63.30
2018-07-30T14:16:15.694Z,64.90
2018-07-30T14:18:44.093Z,63.30
2018-07-30T14:21:12.486Z,64.60
2018-07-30T14:23:40.918Z,64.30
2018-07-30T14:26:09.377Z,63.00
2018-07-30T14:28:37.781Z,64.90
2018-07-30T14:31:06.209Z,63.40
2018-07-30T14:33:34.563Z,63.20
2018-07-30T14:36:03.192Z,63.40
2018-07-30T14:38:31.482Z,65.00
2018-07-30T14:40:59.938Z,64.10
2018-07-30T14:43:28.253Z,63.50
2018-07-30T14:45:56.622Z,63.00
2018-07-30T14:48:24.996Z,63.00
2018-07-30T14:50:53.372Z,62.00
2018-07-30T14:53:21.749Z,64.20
2018-07-30T14:55:50.316Z,63.80
2018-07-30T14:58:18.767Z,63.00
2018-07-30T15:00:47.153Z,64.10
2018-07-30T15:03:15.547Z,64.20
2018-07-30T15:05:43.937Z,63.80
2018-07-30T15:08:12.315Z,63.80
2018-07-30T15:10:40.771Z,64.20
2018-07-30T15:13:09.138Z,63.80
2018-07-30T15:15:37.495Z,62.80
2018-07-30T15:18:05.949Z,63.50
2018-07-30T15:20:34.319Z,63.30
2018-07-30T15:23:02.772Z,63.70
2018-07-30T15:25:31.219Z,63.80
2018-07-30T15:27:59.780Z,62.70
2018-07-30T15:30:28.182Z,63.10
2018-07-30T15:32:56.600Z,62.70
2018-07-30T15:35:25.003Z,63.80
2018-07-30T15:37:53.329Z,64.00
2018-07-30T15:40:21.751Z,64.00
2018-07-30T15:42:50.172Z,63.80
2018-07-30T15:45:18.493Z,65.70
2018-07-30T15:47:47.153Z,64.70
2018-07-30T15:50:15.463Z,65.10
2018-07-30T15:52:43.924Z,65.50
2018-07-30T15:55:12.364Z,65.00
2018-07-30T15:57:40.704Z,66.00
2018-07-30T16:00:09.743Z,66.70
2018-07-30T16:02:38.190Z,66.70
2018-07-30T16:05:06.639Z,66.70
2018-07-30T16:07:34.949Z,64.90
2018-07-30T16:12:31.666Z,66.00
2018-07-30T16:15:00.097Z,65.50
2018-07-30T16:17:28.472Z,65.20
2018-07-30T16:19:56.882Z,63.10
2018-07-30T16:22:25.276Z,64.20
2018-07-30T16:24:54.167Z,63.10
2018-07-30T16:27:22.633Z,62.90
2018-07-30T16:29:51.073Z,63.10
2018-07-30T16:32:19.556Z,63.50
2018-07-30T16:34:47.899Z,63.10
2018-07-30T16:37:16.391Z,65.20
2018-07-30T16:39:44.798Z,63.00
2018-07-30T16:42:13.246Z,64.20
2018-07-30T16:44:41.891Z,63.90
2018-07-30T16:47:10.397Z,63.30
2018-07-30T16:49:38.673Z,63.30
2018-07-30T16:52:07.060Z,63.80
2018-07-30T16:54:35.400Z,62.80
2018-07-30T16:57:03.802Z,62.80
2018-07-30T16:59:32.255Z,62.30
2018-07-30T17:02:00.640Z,63.20
2018-07-30T17:04:29.077Z,63.20
2018-07-30T17:06:57.494Z,62.80
2018-07-30T17:09:25.868Z,63.00
2018-07-30T17:11:54.309Z,62.80
2018-07-30T17:14:22.683Z,64.20
2018-07-30T17:16:51.113Z,64.70
2018-07-30T17:19:19.667Z,61.70
2018-07-30T17:21:48.130Z,64.60
2018-07-30T17:24:16.595Z,64.80
2018-07-30T17:26:45.038Z,62.20
2018-07-30T17:29:13.342Z,63.40
2018-07-30T17:31:41.741Z,64.00
2018-07-30T17:34:10.079Z,63.70
2018-07-30T17:36:38.489Z,63.40
2018-07-30T17:39:08.556Z,63.30
2018-07-30T17:41:37.251Z,65.70
2018-07-30T17:44:05.720Z,65.60
2018-07-30T17:46:34.143Z,65.10
2018-07-30T17:49:02.538Z,63.40
2018-07-30T17:51:30.924Z,62.90
2018-07-30T17:53:59.371Z,62.10
2018-07-30T17:56:27.951Z,63.70
2018-07-30T17:58:56.380Z,63.20
2018-07-30T18:01:24.797Z,62.50
2018-07-30T18:03:53.380Z,62.50
2018-07-30T18:06:21.874Z,62.50
2018-07-30T18:08:50.363Z,62.40
2018-07-30T18:11:18.736Z,63.00
2018-07-30T18:13:47.167Z,64.60
2018-07-30T18:16:15.547Z,65.70
2018-07-30T18:18:43.949Z,66.90
2018-07-30T18:21:12.289Z,67.70
2018-07-30T18:23:40.641Z,66.90
2018-07-30T18:26:09.200Z,68.60
2018-07-30T18:28:37.601Z,68.50
2018-07-30T18:31:06.190Z,69.00
2018-07-30T18:33:34.761Z,69.20
2018-07-30T18:36:03.066Z,70.20
2018-07-30T18:38:31.476Z,70.30
2018-07-30T18:40:59.871Z,71.00
2018-07-30T18:43:28.248Z,70.90
2018-07-30T18:45:56.660Z,71.30
2018-07-30T18:48:25.015Z,71.80
2018-07-30T18:50:53.483Z,72.10
2018-07-30T18:53:21.927Z,72.50
2018-07-30T18:55:50.253Z,72.70
2018-07-30T18:58:18.688Z,73.00
2018-07-30T19:00:47.045Z,74.10
2018-07-30T19:03:15.464Z,74.50
2018-07-30T19:05:43.988Z,75.20
2018-07-30T19:08:12.476Z,75.60
2018-07-30T19:10:40.942Z,75.40
2018-07-30T19:13:09.315Z,76.10
2018-07-30T19:15:37.803Z,76.40
2018-07-30T19:18:06.338Z,76.60
2018-07-30T19:20:34.800Z,76.80
2018-07-30T19:23:03.298Z,77.60
2018-07-30T19:25:31.745Z,77.60
2018-07-30T19:28:00.184Z,78.90
2018-07-30T19:30:28.742Z,78.90
2018-07-30T19:32:57.099Z,79.40
2018-07-30T19:35:25.574Z,80.10
2018-07-30T19:37:54.097Z,80.20
2018-07-30T19:40:22.549Z,80.60
2018-07-30T19:42:51.118Z,81.50
2018-07-30T19:45:19.617Z,81.90
2018-07-30T19:47:48.341Z,81.70
2018-07-30T19:50:16.810Z,82.30
2018-07-30T19:52:45.266Z,83.30
2018-07-30T19:55:13.707Z,83.10
2018-07-30T19:57:42.109Z,83.40
2018-07-30T20:00:10.453Z,83.50
2018-07-30T20:02:38.761Z,84.00
2018-07-30T20:05:07.668Z,84.40
2018-07-30T20:07:36.031Z,84.80
2018-07-30T20:10:04.461Z,85.10
2018-07-30T20:12:32.900Z,85.30
2018-07-30T20:15:01.433Z,85.20
2018-07-30T20:17:29.912Z,85.10
2018-07-30T20:19:58.287Z,85.90
2018-07-30T20:22:26.721Z,85.70
2018-07-30T20:24:55.528Z,85.70
2018-07-30T20:27:24.060Z,86.00
2018-07-30T20:29:52.515Z,86.20
2018-07-30T20:32:20.985Z,87.20
2018-07-30T20:34:49.376Z,87.20
2018-07-30T20:37:17.714Z,88.00
2018-07-30T20:39:46.371Z,88.50
2018-07-30T20:42:14.811Z,89.20
2018-07-30T20:44:43.201Z,89.20
2018-07-30T20:47:11.649Z,89.40
2018-07-30T20:49:40.414Z,89.40
2018-07-30T20:52:08.850Z,89.40
2018-07-30T20:54:37.290Z,89.70
2018-07-30T20:57:05.752Z,89.80
2018-07-30T20:59:34.081Z,90.10
2018-07-30T21:02:02.522Z,90.20
2018-07-30T21:04:31.174Z,90.30
2018-07-30T21:06:59.632Z,90.60
2018-07-30T21:09:34.667Z,91.10
2018-07-30T21:12:03.042Z,91.00
2018-07-30T21:14:31.480Z,90.80
2018-07-30T21:17:00.005Z,91.00
2018-07-30T21:19:28.448Z,91.10
2018-07-30T21:21:56.863Z,91.20
2018-07-30T21:24:25.233Z,91.40
2018-07-30T21:26:53.799Z,91.40
2018-07-30T21:29:22.265Z,91.40
2018-07-30T21:31:50.663Z,91.60
2018-07-30T21:34:19.182Z,91.70
2018-07-30T21:36:47.654Z,91.80
2018-07-30T21:39:16.004Z,91.70
2018-07-30T21:41:44.384Z,91.70
2018-07-30T21:44:12.769Z,91.90
2018-07-30T21:46:42.212Z,92.10
2018-07-30T21:49:10.654Z,92.30
2018-07-30T21:51:39.028Z,92.50
2018-07-30T21:54:07.479Z,92.70
2018-07-30T21:56:35.964Z,93.00
2018-07-30T21:59:04.391Z,93.30
2018-07-30T22:01:33.114Z,93.30
2018-07-30T22:04:01.673Z,93.40
2018-07-30T22:06:30.138Z,93.60
2018-07-30T22:08:59.118Z,93.70
2018-07-30T22:11:27.536Z,93.90
2018-07-30T22:13:55.912Z,94.00
2018-07-30T22:16:24.294Z,94.50
2018-07-30T22:18:52.968Z,94.60
2018-07-30T22:21:21.293Z,94.50
2018-07-30T22:23:49.648Z,94.50
2018-07-30T22:26:18.165Z,94.80
2018-07-30T22:28:46.579Z,94.60
2018-07-30T22:31:15.182Z,94.90
2018-07-30T22:33:43.806Z,95.00
2018-07-30T22:36:12.231Z,95.10
2018-07-30T22:38:40.797Z,95.60
2018-07-30T22:41:09.298Z,95.10
2018-07-30T22:43:37.667Z,95.40
2018-07-30T22:46:06.446Z,95.40
2018-07-30T22:48:34.864Z,95.20
2018-07-30T22:51:03.347Z,95.10
2018-07-30T22:53:31.826Z,95.00
2018-07-30T22:56:00.191Z,95.20
2018-07-30T22:58:28.747Z,95.30
2018-07-30T23:00:57.093Z,95.50
2018-07-30T23:03:25.578Z,95.90
2018-07-30T23:05:54.242Z,95.90
2018-07-30T23:08:22.761Z,96.50
2018-07-30T23:10:51.139Z,97.00
2018-07-30T23:13:19.492Z,97.20
2018-07-30T23:15:47.990Z,97.00
2018-07-30T23:18:16.346Z,97.10
2018-07-30T23:20:44.848Z,97.00
2018-07-30T23:23:13.228Z,96.90
2018-07-30T23:25:43.182Z,97.20
2018-07-30T23:28:11.712Z,97.40
2018-07-30T23:30:40.246Z,97.30
2018-07-30T23:33:08.934Z,98.00
2018-07-30T23:35:38.238Z,97.70
2018-07-30T23:38:06.632Z,97.70
2018-07-30T23:40:35.202Z,97.80
2018-07-30T23:43:03.997Z,97.80
2018-07-30T23:45:32.384Z,97.90
2018-07-30T23:48:00.770Z,98.00
2018-07-30T23:50:29.153Z,98.10
2018-07-30T23:52:57.569Z,98.40
2018-07-30T23:55:26.275Z,98.20
2018-07-30T23:57:54.764Z,98.60
